Black Star — 9HA2911 — position and weather

sailwx.info

Track history (hours):
 
Tides and Currents Weather Stations Pressure Air Temp Water Temp Dewpoint Dewpoint Depression Visibility Wind Speed Wind Dir Waves Ship Positions

Black Star

Last reported at 2015-Jul-05 15:28 UTC. Time now 2015-Jul-05 19:26 UTC.
Position N 33°49' E 029°14'.

Length 128 m; draft 7.3 m.

Type: Ship (hazmat cat A). MMSI: 256714000.

Date/timePositionNaut miles runAvg speedWind from/ knotsBaromVisibWave heightAir tempDewpointWater temp
2015-Jul-05 15:28N 33°49' E 029°14'4911.0
2015-Jul-05 11:03N 33°39' E 030°11'1011.4
2015-Jul-05 10:12N 33°37' E 030°23'1911.4
2015-Jul-05 08:31N 33°34' E 030°45'1411.1
2015-Jul-05 07:18N 33°31' E 031°01'811.0
2015-Jul-05 06:33N 33°30' E 031°11'1111.0
2015-Jul-05 05:33N 33°28' E 031°24'1111.3
2015-Jul-05 04:33N 33°26' E 031°37'1211.7
2015-Jul-05 03:32N 33°24' E 031°51'1211.9
2015-Jul-05 02:33N 33°22' E 032°05'1312.2
2015-Jul-05 01:32N 33°19' E 032°20'1212.2
2015-Jul-05 00:33N 33°17' E 032°34'1212.2
2015-Jul-04 23:32N 33°14' E 032°48'1212.1
2015-Jul-04 22:33N 33°13' E 033°02'1312.2
2015-Jul-04 21:30N 33°10' E 033°17'1412.2
2015-Jul-04 20:24N 33°08' E 033°33'1012.4
2015-Jul-04 19:33N 33°06' E 033°45'1412.1
2015-Jul-04 18:23N 33°03' E 034°02'1012.0
2015-Jul-04 17:33N 33°01' E 034°14'1512.0
2015-Jul-04 16:19N 32°58' E 034°31'  
2015-Jul-01 00:31N 32°45' E 034°36'4 3.4
2015-Jun-30 23:30N 32°44' E 034°40'  
2015-Jun-27 02:14N 33°09' E 028°48'2212.5
2015-Jun-27 00:27N 33°29' E 028°37'1512.7
2015-Jun-26 23:15N 33°43' E 028°29'912.8
2015-Jun-26 22:33N 33°52' E 028°25'1313.0
2015-Jun-26 21:33N 34°03' E 028°19'5413.2
2015-Jun-26 17:27N 34°53' E 027°52'56 6.7
2015-Jun-26 09:06N 35°44' E 027°26'712.7
2015-Jun-26 08:33N 35°50' E 027°22'1212.5
2015-Jun-26 07:33N 36°01' E 027°15'4912.3
2015-Jun-26 03:33N 36°42' E 026°41'4811.6
2015-Jun-25 23:24N 37°19' E 026°02'1011.6
2015-Jun-25 22:33N 37°24' E 025°52'1110.8
2015-Jun-25 21:31N 37°34' E 025°46'1111.8
2015-Jun-25 20:33N 37°46' E 025°45'  
Track history (hours):
 
Tides and Currents Weather Stations Pressure Air Temp Water Temp Dewpoint Dewpoint Depression Visibility Wind Speed Wind Dir Waves Ship Positions

Black Star

Last reported at 2015-Jul-05 15:28 UTC. Time now 2015-Jul-05 19:26 UTC.
Position N 33°49' E 029°14'.

Length 128 m; draft 7.3 m.

Type: Ship (hazmat cat A). MMSI: 256714000.

Date/timePositionNaut miles runAvg speedWind from/ knotsBaromVisibWave heightAir tempDewpointWater temp
2015-Jul-05 15:28N 33°49' E 029°14'4911.0
2015-Jul-05 11:03N 33°39' E 030°11'1011.4
2015-Jul-05 10:12N 33°37' E 030°23'1911.4
2015-Jul-05 08:31N 33°34' E 030°45'1411.1
2015-Jul-05 07:18N 33°31' E 031°01'811.0
2015-Jul-05 06:33N 33°30' E 031°11'1111.0
2015-Jul-05 05:33N 33°28' E 031°24'1111.3
2015-Jul-05 04:33N 33°26' E 031°37'1211.7
2015-Jul-05 03:32N 33°24' E 031°51'1211.9
2015-Jul-05 02:33N 33°22' E 032°05'1312.2
2015-Jul-05 01:32N 33°19' E 032°20'1212.2
2015-Jul-05 00:33N 33°17' E 032°34'1212.2
2015-Jul-04 23:32N 33°14' E 032°48'1212.1
2015-Jul-04 22:33N 33°13' E 033°02'1312.2
2015-Jul-04 21:30N 33°10' E 033°17'1412.2
2015-Jul-04 20:24N 33°08' E 033°33'1012.4
2015-Jul-04 19:33N 33°06' E 033°45'1412.1
2015-Jul-04 18:23N 33°03' E 034°02'1012.0
2015-Jul-04 17:33N 33°01' E 034°14'1512.0
2015-Jul-04 16:19N 32°58' E 034°31'  
2015-Jul-01 00:31N 32°45' E 034°36'4 3.4
2015-Jun-30 23:30N 32°44' E 034°40'  
2015-Jun-27 02:14N 33°09' E 028°48'2212.5
2015-Jun-27 00:27N 33°29' E 028°37'1512.7
2015-Jun-26 23:15N 33°43' E 028°29'912.8
2015-Jun-26 22:33N 33°52' E 028°25'1313.0
2015-Jun-26 21:33N 34°03' E 028°19'5413.2
2015-Jun-26 17:27N 34°53' E 027°52'56 6.7
2015-Jun-26 09:06N 35°44' E 027°26'712.7
2015-Jun-26 08:33N 35°50' E 027°22'1212.5
2015-Jun-26 07:33N 36°01' E 027°15'4912.3
2015-Jun-26 03:33N 36°42' E 026°41'4811.6
2015-Jun-25 23:24N 37°19' E 026°02'1011.6
2015-Jun-25 22:33N 37°24' E 025°52'1110.8
2015-Jun-25 21:31N 37°34' E 025°46'1111.8
2015-Jun-25 20:33N 37°46' E 025°45'  

Dump ship's entire track history